sensor_id;sensor_type;location;lat;lon;timestamp;temperature;humidity
15239;DHT22;7722;53.274;9.500;2023-11-19T00:00:41;5.40;99.90
15239;DHT22;7722;53.274;9.500;2023-11-19T00:03:08;5.40;99.90
15239;DHT22;7722;53.274;9.500;2023-11-19T00:05:36;5.40;99.90
15239;DHT22;7722;53.274;9.500;2023-11-19T00:08:07;5.40;99.90
15239;DHT22;7722;53.274;9.500;2023-11-19T00:10:34;5.40;99.90
15239;DHT22;7722;53.274;9.500;2023-11-19T00:13:01;5.40;99.90
15239;DHT22;7722;53.274;9.500;2023-11-19T00:15:31;5.40;99.90
15239;DHT22;7722;53.274;9.500;2023-11-19T00:17:58;5.40;99.90
15239;DHT22;7722;53.274;9.500;2023-11-19T00:20:28;5.50;99.90
15239;DHT22;7722;53.274;9.500;2023-11-19T00:22:55;5.50;99.90
15239;DHT22;7722;53.274;9.500;2023-11-19T00:25:22;5.50;99.90
15239;DHT22;7722;53.274;9.500;2023-11-19T00:27:49;5.50;99.90
15239;DHT22;7722;53.274;9.500;2023-11-19T00:30:17;5.50;99.90
15239;DHT22;7722;53.274;9.500;2023-11-19T00:32:45;5.50;99.90
15239;DHT22;7722;53.274;9.500;2023-11-19T00:35:12;5.50;99.90
15239;DHT22;7722;53.274;9.500;2023-11-19T00:37:40;5.50;99.90
15239;DHT22;7722;53.274;9.500;2023-11-19T00:40:09;5.50;99.90
15239;DHT22;7722;53.274;9.500;2023-11-19T00:42:36;5.50;99.90
15239;DHT22;7722;53.274;9.500;2023-11-19T00:45:04;5.50;99.90
15239;DHT22;7722;53.274;9.500;2023-11-19T00:47:34;5.60;99.90
15239;DHT22;7722;53.274;9.500;2023-11-19T00:50:02;5.50;99.90
15239;DHT22;7722;53.274;9.500;2023-11-19T00:52:30;5.60;99.90
15239;DHT22;7722;53.274;9.500;2023-11-19T00:54:55;5.60;99.90
15239;DHT22;7722;53.274;9.500;2023-11-19T00:57:23;5.60;99.90
15239;DHT22;7722;53.274;9.500;2023-11-19T00:59:52;5.60;99.90
15239;DHT22;7722;53.274;9.500;2023-11-19T01:02:19;5.60;99.90
15239;DHT22;7722;53.274;9.500;2023-11-19T01:04:46;5.70;99.90
15239;DHT22;7722;53.274;9.500;2023-11-19T01:07:15;5.70;99.90
15239;DHT22;7722;53.274;9.500;2023-11-19T01:09:42;5.60;99.90
15239;DHT22;7722;53.274;9.500;2023-11-19T01:12:09;5.70;99.90
15239;DHT22;7722;53.274;9.500;2023-11-19T01:14:37;5.70;99.90
15239;DHT22;7722;53.274;9.500;2023-11-19T01:17:05;5.70;99.90
15239;DHT22;7722;53.274;9.500;2023-11-19T01:19:32;5.70;99.90
15239;DHT22;7722;53.274;9.500;2023-11-19T01:21:59;5.80;99.90
15239;DHT22;7722;53.274;9.500;2023-11-19T01:24:27;5.80;99.90
15239;DHT22;7722;53.274;9.500;2023-11-19T01:26:56;5.80;99.90
15239;DHT22;7722;53.274;9.500;2023-11-19T01:29:25;5.80;99.90
15239;DHT22;7722;53.274;9.500;2023-11-19T01:31:52;5.90;99.90
15239;DHT22;7722;53.274;9.500;2023-11-19T01:34:19;5.90;99.90
15239;DHT22;7722;53.274;9.500;2023-11-19T01:36:47;5.90;99.90
15239;DHT22;7722;53.274;9.500;2023-11-19T01:39:14;6.00;99.90
15239;DHT22;7722;53.274;9.500;2023-11-19T01:41:44;6.10;99.90
15239;DHT22;7722;53.274;9.500;2023-11-19T01:44:11;6.10;99.90
15239;DHT22;7722;53.274;9.500;2023-11-19T01:46:40;6.10;99.90
15239;DHT22;7722;53.274;9.500;2023-11-19T01:49:08;6.20;99.90
15239;DHT22;7722;53.274;9.500;2023-11-19T01:51:38;6.20;99.90
15239;DHT22;7722;53.274;9.500;2023-11-19T01:54:06;6.20;99.90
15239;DHT22;7722;53.274;9.500;2023-11-19T01:56:35;6.30;99.90
15239;DHT22;7722;53.274;9.500;2023-11-19T01:59:04;6.30;99.90
15239;DHT22;7722;53.274;9.500;2023-11-19T02:01:31;6.30;99.90
15239;DHT22;7722;53.274;9.500;2023-11-19T02:04:02;6.40;99.90
15239;DHT22;7722;53.274;9.500;2023-11-19T02:06:30;6.40;99.90
15239;DHT22;7722;53.274;9.500;2023-11-19T02:08:58;6.40;99.90
15239;DHT22;7722;53.274;9.500;2023-11-19T02:11:26;6.60;99.90
15239;DHT22;7722;53.274;9.500;2023-11-19T02:13:55;6.60;99.90
15239;DHT22;7722;53.274;9.500;2023-11-19T02:16:23;6.70;99.90
15239;DHT22;7722;53.274;9.500;2023-11-19T02:18:50;6.70;99.90
15239;DHT22;7722;53.274;9.500;2023-11-19T02:21:18;6.80;99.90
15239;DHT22;7722;53.274;9.500;2023-11-19T02:23:45;6.90;99.90
15239;DHT22;7722;53.274;9.500;2023-11-19T02:26:18;6.90;99.90
15239;DHT22;7722;53.274;9.500;2023-11-19T02:28:50;6.90;99.90
15239;DHT22;7722;53.274;9.500;2023-11-19T02:31:18;6.90;99.90
15239;DHT22;7722;53.274;9.500;2023-11-19T02:33:45;7.00;99.90
15239;DHT22;7722;53.274;9.500;2023-11-19T02:36:12;7.10;99.90
15239;DHT22;7722;53.274;9.500;2023-11-19T02:38:39;7.10;99.90
15239;DHT22;7722;53.274;9.500;2023-11-19T02:41:07;7.10;99.90
15239;DHT22;7722;53.274;9.500;2023-11-19T02:43:37;7.20;99.90
15239;DHT22;7722;53.274;9.500;2023-11-19T02:46:06;7.20;99.90
15239;DHT22;7722;53.274;9.500;2023-11-19T02:48:34;7.20;99.90
15239;DHT22;7722;53.274;9.500;2023-11-19T02:51:02;7.30;99.90
15239;DHT22;7722;53.274;9.500;2023-11-19T02:53:30;7.40;99.90
15239;DHT22;7722;53.274;9.500;2023-11-19T02:55:57;7.40;99.90
15239;DHT22;7722;53.274;9.500;2023-11-19T02:58:31;7.50;99.90
15239;DHT22;7722;53.274;9.500;2023-11-19T03:01:00;7.60;99.90
15239;DHT22;7722;53.274;9.500;2023-11-19T03:03:39;7.60;99.90
15239;DHT22;7722;53.274;9.500;2023-11-19T03:06:08;7.70;99.90
15239;DHT22;7722;53.274;9.500;2023-11-19T03:08:36;7.70;99.90
15239;DHT22;7722;53.274;9.500;2023-11-19T03:11:03;7.70;99.90
15239;DHT22;7722;53.274;9.500;2023-11-19T03:13:31;7.70;99.90
15239;DHT22;7722;53.274;9.500;2023-11-19T03:15:58;7.70;99.90
15239;DHT22;7722;53.274;9.500;2023-11-19T03:18:25;7.70;99.90
15239;DHT22;7722;53.274;9.500;2023-11-19T03:20:55;7.80;99.90
15239;DHT22;7722;53.274;9.500;2023-11-19T03:23:24;7.90;99.90
15239;DHT22;7722;53.274;9.500;2023-11-19T03:25:53;7.90;99.90
15239;DHT22;7722;53.274;9.500;2023-11-19T03:28:20;7.90;99.90
15239;DHT22;7722;53.274;9.500;2023-11-19T03:30:47;8.00;99.90
15239;DHT22;7722;53.274;9.500;2023-11-19T03:33:15;8.00;99.90
15239;DHT22;7722;53.274;9.500;2023-11-19T03:35:42;8.00;99.90
15239;DHT22;7722;53.274;9.500;2023-11-19T03:38:10;8.00;99.90
15239;DHT22;7722;53.274;9.500;2023-11-19T03:40:37;8.10;99.90
15239;DHT22;7722;53.274;9.500;2023-11-19T03:43:04;8.10;99.90
15239;DHT22;7722;53.274;9.500;2023-11-19T03:45:31;8.30;99.90
15239;DHT22;7722;53.274;9.500;2023-11-19T03:47:58;8.30;99.90
15239;DHT22;7722;53.274;9.500;2023-11-19T03:50:26;8.40;99.90
15239;DHT22;7722;53.274;9.500;2023-11-19T03:52:53;8.50;99.90
15239;DHT22;7722;53.274;9.500;2023-11-19T03:55:21;8.50;99.90
15239;DHT22;7722;53.274;9.500;2023-11-19T03:57:48;8.60;99.90
15239;DHT22;7722;53.274;9.500;2023-11-19T04:00:16;8.70;99.90
15239;DHT22;7722;53.274;9.500;2023-11-19T04:02:43;8.70;99.90
15239;DHT22;7722;53.274;9.500;2023-11-19T04:05:12;8.80;99.90
15239;DHT22;7722;53.274;9.500;2023-11-19T04:07:40;8.80;99.90
15239;DHT22;7722;53.274;9.500;2023-11-19T04:10:07;8.80;99.90
15239;DHT22;7722;53.274;9.500;2023-11-19T04:12:36;9.00;99.90
15239;DHT22;7722;53.274;9.500;2023-11-19T04:15:04;9.00;99.90
15239;DHT22;7722;53.274;9.500;2023-11-19T04:17:32;9.10;99.90
15239;DHT22;7722;53.274;9.500;2023-11-19T04:19:59;9.20;99.90
15239;DHT22;7722;53.274;9.500;2023-11-19T04:22:26;9.30;99.90
15239;DHT22;7722;53.274;9.500;2023-11-19T04:24:53;9.40;99.90
15239;DHT22;7722;53.274;9.500;2023-11-19T04:27:20;9.50;99.90
15239;DHT22;7722;53.274;9.500;2023-11-19T04:29:48;9.50;99.90
15239;DHT22;7722;53.274;9.500;2023-11-19T04:32:16;9.60;99.90
15239;DHT22;7722;53.274;9.500;2023-11-19T04:34:43;9.70;99.90
15239;DHT22;7722;53.274;9.500;2023-11-19T04:37:10;9.80;99.90
15239;DHT22;7722;53.274;9.500;2023-11-19T04:39:37;9.90;99.90
15239;DHT22;7722;53.274;9.500;2023-11-19T04:42:05;10.00;99.90
15239;DHT22;7722;53.274;9.500;2023-11-19T04:44:32;10.00;99.90
15239;DHT22;7722;53.274;9.500;2023-11-19T04:47:01;10.20;99.90
15239;DHT22;7722;53.274;9.500;2023-11-19T04:49:28;10.10;99.90
15239;DHT22;7722;53.274;9.500;2023-11-19T04:51:56;10.00;99.90
15239;DHT22;7722;53.274;9.500;2023-11-19T04:54:23;10.20;99.90
15239;DHT22;7722;53.274;9.500;2023-11-19T04:56:50;10.20;99.90
15239;DHT22;7722;53.274;9.500;2023-11-19T04:59:17;10.30;99.90
15239;DHT22;7722;53.274;9.500;2023-11-19T05:01:47;10.40;99.90
15239;DHT22;7722;53.274;9.500;2023-11-19T05:04:16;10.30;99.90
15239;DHT22;7722;53.274;9.500;2023-11-19T05:06:44;10.30;99.90
15239;DHT22;7722;53.274;9.500;2023-11-19T05:09:11;10.40;99.90
15239;DHT22;7722;53.274;9.500;2023-11-19T05:11:39;10.40;99.90
15239;DHT22;7722;53.274;9.500;2023-11-19T05:14:07;10.40;99.90
15239;DHT22;7722;53.274;9.500;2023-11-19T05:16:35;10.40;99.90
15239;DHT22;7722;53.274;9.500;2023-11-19T05:19:02;10.40;99.90
15239;DHT22;7722;53.274;9.500;2023-11-19T05:21:31;10.40;99.90
15239;DHT22;7722;53.274;9.500;2023-11-19T05:23:57;10.40;99.90
15239;DHT22;7722;53.274;9.500;2023-11-19T05:26:25;10.50;99.90
15239;DHT22;7722;53.274;9.500;2023-11-19T05:28:52;10.50;99.90
15239;DHT22;7722;53.274;9.500;2023-11-19T05:31:19;10.60;99.90
15239;DHT22;7722;53.274;9.500;2023-11-19T05:33:47;10.60;99.90
15239;DHT22;7722;53.274;9.500;2023-11-19T05:36:15;10.60;99.90
15239;DHT22;7722;53.274;9.500;2023-11-19T05:38:43;10.60;99.90
15239;DHT22;7722;53.274;9.500;2023-11-19T05:41:11;10.50;99.90
15239;DHT22;7722;53.274;9.500;2023-11-19T05:43:38;10.60;99.90
15239;DHT22;7722;53.274;9.500;2023-11-19T05:46:06;10.80;99.90
15239;DHT22;7722;53.274;9.500;2023-11-19T05:48:34;10.70;99.90
15239;DHT22;7722;53.274;9.500;2023-11-19T05:51:01;10.80;99.90
15239;DHT22;7722;53.274;9.500;2023-11-19T05:53:28;10.70;99.90
15239;DHT22;7722;53.274;9.500;2023-11-19T05:55:57;10.80;99.90
15239;DHT22;7722;53.274;9.500;2023-11-19T05:58:24;10.80;99.90
15239;DHT22;7722;53.274;9.500;2023-11-19T06:00:54;10.70;99.90
15239;DHT22;7722;53.274;9.500;2023-11-19T06:03:21;10.70;99.90
15239;DHT22;7722;53.274;9.500;2023-11-19T06:05:49;10.70;99.90
15239;DHT22;7722;53.274;9.500;2023-11-19T06:08:16;10.70;99.90
15239;DHT22;7722;53.274;9.500;2023-11-19T06:10:44;10.70;99.90
15239;DHT22;7722;53.274;9.500;2023-11-19T06:13:13;10.80;99.90
15239;DHT22;7722;53.274;9.500;2023-11-19T06:15:41;10.80;99.90
15239;DHT22;7722;53.274;9.500;2023-11-19T06:18:09;10.80;99.90
15239;DHT22;7722;53.274;9.500;2023-11-19T06:20:37;10.80;99.90
15239;DHT22;7722;53.274;9.500;2023-11-19T06:23:04;10.80;99.90
15239;DHT22;7722;53.274;9.500;2023-11-19T06:25:32;10.80;99.90
15239;DHT22;7722;53.274;9.500;2023-11-19T06:28:00;10.80;99.90
15239;DHT22;7722;53.274;9.500;2023-11-19T06:30:29;11.00;99.90
15239;DHT22;7722;53.274;9.500;2023-11-19T06:32:58;10.90;99.90
15239;DHT22;7722;53.274;9.500;2023-11-19T06:35:25;10.90;99.90
15239;DHT22;7722;53.274;9.500;2023-11-19T06:37:52;10.90;99.90
15239;DHT22;7722;53.274;9.500;2023-11-19T06:40:19;10.80;99.90
15239;DHT22;7722;53.274;9.500;2023-11-19T06:42:46;10.90;99.90
15239;DHT22;7722;53.274;9.500;2023-11-19T06:45:13;11.00;99.90
15239;DHT22;7722;53.274;9.500;2023-11-19T06:47:41;11.00;99.90
15239;DHT22;7722;53.274;9.500;2023-11-19T06:50:09;10.90;99.90
15239;DHT22;7722;53.274;9.500;2023-11-19T06:52:37;11.00;99.90
15239;DHT22;7722;53.274;9.500;2023-11-19T06:55:06;11.00;99.90
15239;DHT22;7722;53.274;9.500;2023-11-19T06:57:33;11.00;99.90
15239;DHT22;7722;53.274;9.500;2023-11-19T07:00:00;11.00;99.90
15239;DHT22;7722;53.274;9.500;2023-11-19T07:02:27;11.00;99.90
15239;DHT22;7722;53.274;9.500;2023-11-19T07:04:56;11.00;99.90
15239;DHT22;7722;53.274;9.500;2023-11-19T07:07:23;11.00;99.90
15239;DHT22;7722;53.274;9.500;2023-11-19T07:09:50;10.90;99.90
15239;DHT22;7722;53.274;9.500;2023-11-19T07:12:17;10.90;99.90
15239;DHT22;7722;53.274;9.500;2023-11-19T07:14:44;11.10;99.90
15239;DHT22;7722;53.274;9.500;2023-11-19T07:17:12;11.00;99.90
15239;DHT22;7722;53.274;9.500;2023-11-19T07:19:39;11.10;99.90
15239;DHT22;7722;53.274;9.500;2023-11-19T07:22:07;11.10;99.90
15239;DHT22;7722;53.274;9.500;2023-11-19T07:24:34;11.10;99.90
15239;DHT22;7722;53.274;9.500;2023-11-19T07:27:02;11.10;99.90
15239;DHT22;7722;53.274;9.500;2023-11-19T07:29:29;11.10;99.90
15239;DHT22;7722;53.274;9.500;2023-11-19T07:31:57;11.10;99.90
15239;DHT22;7722;53.274;9.500;2023-11-19T07:34:24;11.20;99.90
15239;DHT22;7722;53.274;9.500;2023-11-19T07:39:26;11.20;99.90
15239;DHT22;7722;53.274;9.500;2023-11-19T07:41:53;11.10;99.90
15239;DHT22;7722;53.274;9.500;2023-11-19T07:44:20;11.10;99.90
15239;DHT22;7722;53.274;9.500;2023-11-19T07:46:48;11.20;99.90
15239;DHT22;7722;53.274;9.500;2023-11-19T07:49:15;11.20;99.90
15239;DHT22;7722;53.274;9.500;2023-11-19T07:51:42;11.30;99.90
15239;DHT22;7722;53.274;9.500;2023-11-19T07:54:09;11.20;99.90
15239;DHT22;7722;53.274;9.500;2023-11-19T07:56:40;11.20;99.90
15239;DHT22;7722;53.274;9.500;2023-11-19T07:59:08;11.20;99.90
15239;DHT22;7722;53.274;9.500;2023-11-19T08:01:35;11.20;99.90
15239;DHT22;7722;53.274;9.500;2023-11-19T08:04:04;11.20;99.90
15239;DHT22;7722;53.274;9.500;2023-11-19T08:06:32;11.30;99.90
15239;DHT22;7722;53.274;9.500;2023-11-19T08:08:59;11.30;99.90
15239;DHT22;7722;53.274;9.500;2023-11-19T08:11:26;11.20;99.90
15239;DHT22;7722;53.274;9.500;2023-11-19T08:13:55;11.30;99.90
15239;DHT22;7722;53.274;9.500;2023-11-19T08:16:22;11.30;99.90
15239;DHT22;7722;53.274;9.500;2023-11-19T08:18:49;11.30;99.90
15239;DHT22;7722;53.274;9.500;2023-11-19T08:21:16;11.30;99.90
15239;DHT22;7722;53.274;9.500;2023-11-19T08:23:42;11.30;99.90
15239;DHT22;7722;53.274;9.500;2023-11-19T08:26:10;11.30;99.90
15239;DHT22;7722;53.274;9.500;2023-11-19T08:28:37;11.30;99.90
15239;DHT22;7722;53.274;9.500;2023-11-19T08:31:06;11.30;99.90
15239;DHT22;7722;53.274;9.500;2023-11-19T08:33:33;11.30;99.90
15239;DHT22;7722;53.274;9.500;2023-11-19T08:36:00;11.30;99.90
15239;DHT22;7722;53.274;9.500;2023-11-19T08:38:29;11.40;99.90
15239;DHT22;7722;53.274;9.500;2023-11-19T08:40:56;11.40;99.90
15239;DHT22;7722;53.274;9.500;2023-11-19T08:43:25;11.50;99.90
15239;DHT22;7722;53.274;9.500;2023-11-19T08:45:52;11.50;99.90
15239;DHT22;7722;53.274;9.500;2023-11-19T08:48:21;11.50;99.90
15239;DHT22;7722;53.274;9.500;2023-11-19T08:50:48;11.60;99.90
15239;DHT22;7722;53.274;9.500;2023-11-19T08:53:15;11.60;99.90
15239;DHT22;7722;53.274;9.500;2023-11-19T08:55:42;11.60;99.90
15239;DHT22;7722;53.274;9.500;2023-11-19T08:58:09;11.70;99.90
15239;DHT22;7722;53.274;9.500;2023-11-19T09:00:36;11.60;99.90
15239;DHT22;7722;53.274;9.500;2023-11-19T09:03:03;11.60;99.90
15239;DHT22;7722;53.274;9.500;2023-11-19T09:05:32;11.70;99.90
15239;DHT22;7722;53.274;9.500;2023-11-19T09:07:59;11.70;99.90
15239;DHT22;7722;53.274;9.500;2023-11-19T09:10:26;11.70;99.90
15239;DHT22;7722;53.274;9.500;2023-11-19T09:12:55;11.70;99.90
15239;DHT22;7722;53.274;9.500;2023-11-19T09:15:22;11.70;99.90
15239;DHT22;7722;53.274;9.500;2023-11-19T09:17:49;11.70;99.90
15239;DHT22;7722;53.274;9.500;2023-11-19T09:20:16;11.80;99.90
15239;DHT22;7722;53.274;9.500;2023-11-19T09:22:45;11.80;99.90
15239;DHT22;7722;53.274;9.500;2023-11-19T09:25:12;11.90;99.90
15239;DHT22;7722;53.274;9.500;2023-11-19T09:27:52;11.90;99.90
15239;DHT22;7722;53.274;9.500;2023-11-19T09:30:19;12.00;99.90
15239;DHT22;7722;53.274;9.500;2023-11-19T09:32:46;12.00;99.90
15239;DHT22;7722;53.274;9.500;2023-11-19T09:35:13;11.90;99.90
15239;DHT22;7722;53.274;9.500;2023-11-19T09:37:42;12.10;99.90
15239;DHT22;7722;53.274;9.500;2023-11-19T09:40:10;12.10;99.90
15239;DHT22;7722;53.274;9.500;2023-11-19T09:42:42;12.10;99.90
15239;DHT22;7722;53.274;9.500;2023-11-19T09:45:14;12.30;99.90
15239;DHT22;7722;53.274;9.500;2023-11-19T09:47:44;12.30;99.90
15239;DHT22;7722;53.274;9.500;2023-11-19T09:50:16;12.20;99.90
15239;DHT22;7722;53.274;9.500;2023-11-19T09:52:44;12.20;99.90
15239;DHT22;7722;53.274;9.500;2023-11-19T09:55:12;12.10;99.90
15239;DHT22;7722;53.274;9.500;2023-11-19T09:57:40;12.10;99.90
15239;DHT22;7722;53.274;9.500;2023-11-19T10:00:08;12.10;99.90
15239;DHT22;7722;53.274;9.500;2023-11-19T10:02:37;12.20;99.90
15239;DHT22;7722;53.274;9.500;2023-11-19T10:05:06;12.10;99.90
15239;DHT22;7722;53.274;9.500;2023-11-19T10:07:34;12.10;99.90
15239;DHT22;7722;53.274;9.500;2023-11-19T10:10:01;12.10;99.90
15239;DHT22;7722;53.274;9.500;2023-11-19T10:12:29;12.00;99.90
15239;DHT22;7722;53.274;9.500;2023-11-19T10:14:58;11.90;99.90
15239;DHT22;7722;53.274;9.500;2023-11-19T10:17:28;11.80;99.90
15239;DHT22;7722;53.274;9.500;2023-11-19T10:19:57;11.80;99.90
15239;DHT22;7722;53.274;9.500;2023-11-19T10:22:25;11.90;99.90
15239;DHT22;7722;53.274;9.500;2023-11-19T10:24:52;12.00;99.90
15239;DHT22;7722;53.274;9.500;2023-11-19T10:27:20;12.00;99.90
15239;DHT22;7722;53.274;9.500;2023-11-19T10:29:47;11.90;99.90
15239;DHT22;7722;53.274;9.500;2023-11-19T10:32:14;12.00;99.90
15239;DHT22;7722;53.274;9.500;2023-11-19T10:34:41;12.10;99.90
15239;DHT22;7722;53.274;9.500;2023-11-19T10:37:18;12.10;99.90
15239;DHT22;7722;53.274;9.500;2023-11-19T10:39:54;12.10;99.90
15239;DHT22;7722;53.274;9.500;2023-11-19T10:42:22;12.10;99.90
15239;DHT22;7722;53.274;9.500;2023-11-19T10:44:49;12.00;99.90
15239;DHT22;7722;53.274;9.500;2023-11-19T10:47:19;12.10;99.90
15239;DHT22;7722;53.274;9.500;2023-11-19T10:49:46;12.00;99.90
15239;DHT22;7722;53.274;9.500;2023-11-19T10:52:18;12.00;99.90
15239;DHT22;7722;53.274;9.500;2023-11-19T10:54:49;12.00;99.90
15239;DHT22;7722;53.274;9.500;2023-11-19T10:57:20;12.00;99.90
15239;DHT22;7722;53.274;9.500;2023-11-19T10:59:48;11.90;99.90
15239;DHT22;7722;53.274;9.500;2023-11-19T11:02:21;11.90;99.90
15239;DHT22;7722;53.274;9.500;2023-11-19T11:04:50;11.80;99.90
15239;DHT22;7722;53.274;9.500;2023-11-19T11:07:21;11.80;99.90
15239;DHT22;7722;53.274;9.500;2023-11-19T11:09:51;11.70;99.90
15239;DHT22;7722;53.274;9.500;2023-11-19T11:12:22;11.70;99.90
15239;DHT22;7722;53.274;9.500;2023-11-19T11:14:51;11.70;99.90
15239;DHT22;7722;53.274;9.500;2023-11-19T11:17:20;11.70;99.90
15239;DHT22;7722;53.274;9.500;2023-11-19T11:19:49;11.70;99.90
15239;DHT22;7722;53.274;9.500;2023-11-19T11:22:16;11.80;99.90
15239;DHT22;7722;53.274;9.500;2023-11-19T11:25:00;12.00;99.90
15239;DHT22;7722;53.274;9.500;2023-11-19T11:27:57;11.90;99.90
15239;DHT22;7722;53.274;9.500;2023-11-19T11:30:35;12.00;99.90
15239;DHT22;7722;53.274;9.500;2023-11-19T11:33:26;12.10;99.90
15239;DHT22;7722;53.274;9.500;2023-11-19T11:36:06;12.10;99.90
15239;DHT22;7722;53.274;9.500;2023-11-19T11:38:38;12.00;99.90
15239;DHT22;7722;53.274;9.500;2023-11-19T11:41:19;12.10;99.90
15239;DHT22;7722;53.274;9.500;2023-11-19T11:43:50;12.00;99.90
15239;DHT22;7722;53.274;9.500;2023-11-19T11:46:54;12.10;99.90
15239;DHT22;7722;53.274;9.500;2023-11-19T11:49:28;12.10;99.90
15239;DHT22;7722;53.274;9.500;2023-11-19T11:52:04;12.30;99.90
15239;DHT22;7722;53.274;9.500;2023-11-19T11:54:31;12.40;99.90
15239;DHT22;7722;53.274;9.500;2023-11-19T11:57:07;12.20;99.90
15239;DHT22;7722;53.274;9.500;2023-11-19T11:59:45;12.10;99.90
15239;DHT22;7722;53.274;9.500;2023-11-19T12:02:14;12.10;99.90
15239;DHT22;7722;53.274;9.500;2023-11-19T12:04:42;12.10;99.90
15239;DHT22;7722;53.274;9.500;2023-11-19T12:07:13;12.00;99.90
15239;DHT22;7722;53.274;9.500;2023-11-19T12:09:40;12.00;99.90
15239;DHT22;7722;53.274;9.500;2023-11-19T12:12:18;11.90;99.90
15239;DHT22;7722;53.274;9.500;2023-11-19T12:15:05;11.90;99.90
15239;DHT22;7722;53.274;9.500;2023-11-19T12:17:42;11.80;99.90
15239;DHT22;7722;53.274;9.500;2023-11-19T12:20:11;11.90;99.90
15239;DHT22;7722;53.274;9.500;2023-11-19T12:22:39;11.80;99.90
15239;DHT22;7722;53.274;9.500;2023-11-19T12:25:06;11.80;99.90
15239;DHT22;7722;53.274;9.500;2023-11-19T12:27:35;11.80;99.90
15239;DHT22;7722;53.274;9.500;2023-11-19T12:30:03;11.80;99.90
15239;DHT22;7722;53.274;9.500;2023-11-19T12:32:40;11.80;99.90
15239;DHT22;7722;53.274;9.500;2023-11-19T12:35:08;11.70;99.90
15239;DHT22;7722;53.274;9.500;2023-11-19T12:37:44;11.70;99.90
15239;DHT22;7722;53.274;9.500;2023-11-19T12:40:13;11.80;99.90
15239;DHT22;7722;53.274;9.500;2023-11-19T12:42:42;11.70;99.90
15239;DHT22;7722;53.274;9.500;2023-11-19T12:45:09;11.70;99.90
15239;DHT22;7722;53.274;9.500;2023-11-19T12:47:38;11.60;99.90
15239;DHT22;7722;53.274;9.500;2023-11-19T12:50:06;11.60;99.90
15239;DHT22;7722;53.274;9.500;2023-11-19T12:52:34;11.80;99.90
15239;DHT22;7722;53.274;9.500;2023-11-19T12:55:01;11.80;99.90
15239;DHT22;7722;53.274;9.500;2023-11-19T12:57:39;11.90;99.90
15239;DHT22;7722;53.274;9.500;2023-11-19T13:00:18;11.80;99.90
15239;DHT22;7722;53.274;9.500;2023-11-19T13:02:48;11.80;99.90
15239;DHT22;7722;53.274;9.500;2023-11-19T13:05:26;11.90;99.90
15239;DHT22;7722;53.274;9.500;2023-11-19T13:08:04;11.90;99.90
15239;DHT22;7722;53.274;9.500;2023-11-19T13:10:32;11.80;99.90
15239;DHT22;7722;53.274;9.500;2023-11-19T13:13:04;11.80;99.90
15239;DHT22;7722;53.274;9.500;2023-11-19T13:15:33;11.80;99.90
15239;DHT22;7722;53.274;9.500;2023-11-19T13:18:02;11.80;99.90
15239;DHT22;7722;53.274;9.500;2023-11-19T13:20:29;11.80;99.90
15239;DHT22;7722;53.274;9.500;2023-11-19T13:22:58;11.70;99.90
15239;DHT22;7722;53.274;9.500;2023-11-19T13:25:25;11.70;99.90
15239;DHT22;7722;53.274;9.500;2023-11-19T13:27:53;11.70;99.90
15239;DHT22;7722;53.274;9.500;2023-11-19T13:30:21;11.70;99.90
15239;DHT22;7722;53.274;9.500;2023-11-19T13:32:50;11.70;99.90
15239;DHT22;7722;53.274;9.500;2023-11-19T13:35:18;11.70;99.90
15239;DHT22;7722;53.274;9.500;2023-11-19T13:37:45;11.70;99.90
15239;DHT22;7722;53.274;9.500;2023-11-19T13:40:13;11.70;99.90
15239;DHT22;7722;53.274;9.500;2023-11-19T13:42:41;11.60;99.90
15239;DHT22;7722;53.274;9.500;2023-11-19T13:45:09;11.60;99.90
15239;DHT22;7722;53.274;9.500;2023-11-19T13:47:38;11.60;99.90
15239;DHT22;7722;53.274;9.500;2023-11-19T13:50:09;11.40;99.90
15239;DHT22;7722;53.274;9.500;2023-11-19T13:52:37;11.40;99.90
15239;DHT22;7722;53.274;9.500;2023-11-19T13:55:06;11.40;99.90
15239;DHT22;7722;53.274;9.500;2023-11-19T13:57:34;11.30;99.90
15239;DHT22;7722;53.274;9.500;2023-11-19T14:00:02;11.30;99.90
15239;DHT22;7722;53.274;9.500;2023-11-19T14:02:32;11.40;99.90
15239;DHT22;7722;53.274;9.500;2023-11-19T14:04:59;11.40;99.90
15239;DHT22;7722;53.274;9.500;2023-11-19T14:07:27;11.30;99.90
15239;DHT22;7722;53.274;9.500;2023-11-19T14:09:55;11.30;99.90
15239;DHT22;7722;53.274;9.500;2023-11-19T14:12:22;11.40;99.90
15239;DHT22;7722;53.274;9.500;2023-11-19T14:14:49;11.30;99.90
15239;DHT22;7722;53.274;9.500;2023-11-19T14:17:16;11.40;99.90
15239;DHT22;7722;53.274;9.500;2023-11-19T14:19:44;11.40;99.90
15239;DHT22;7722;53.274;9.500;2023-11-19T14:22:11;11.30;99.90
15239;DHT22;7722;53.274;9.500;2023-11-19T14:24:40;11.30;99.90
15239;DHT22;7722;53.274;9.500;2023-11-19T14:27:08;11.30;99.90
15239;DHT22;7722;53.274;9.500;2023-11-19T14:29:36;11.20;99.90
15239;DHT22;7722;53.274;9.500;2023-11-19T14:32:03;11.20;99.90
15239;DHT22;7722;53.274;9.500;2023-11-19T14:34:31;11.20;99.90
15239;DHT22;7722;53.274;9.500;2023-11-19T14:36:58;11.10;99.90
15239;DHT22;7722;53.274;9.500;2023-11-19T14:39:26;11.10;99.90
15239;DHT22;7722;53.274;9.500;2023-11-19T14:41:56;11.00;99.90
15239;DHT22;7722;53.274;9.500;2023-11-19T14:44:26;11.00;99.90
15239;DHT22;7722;53.274;9.500;2023-11-19T14:46:55;10.90;99.90
15239;DHT22;7722;53.274;9.500;2023-11-19T14:49:22;11.00;99.90
15239;DHT22;7722;53.274;9.500;2023-11-19T14:51:49;10.90;99.90
15239;DHT22;7722;53.274;9.500;2023-11-19T14:54:16;10.90;99.90
15239;DHT22;7722;53.274;9.500;2023-11-19T14:56:44;10.90;99.90
15239;DHT22;7722;53.274;9.500;2023-11-19T14:59:12;10.90;99.90
15239;DHT22;7722;53.274;9.500;2023-11-19T15:01:39;10.80;99.90
15239;DHT22;7722;53.274;9.500;2023-11-19T15:04:07;10.80;99.90
15239;DHT22;7722;53.274;9.500;2023-11-19T15:06:34;10.80;99.90
15239;DHT22;7722;53.274;9.500;2023-11-19T15:09:01;10.80;99.90
15239;DHT22;7722;53.274;9.500;2023-11-19T15:11:28;10.70;99.90
15239;DHT22;7722;53.274;9.500;2023-11-19T15:13:55;10.70;99.90
15239;DHT22;7722;53.274;9.500;2023-11-19T15:16:24;10.70;99.90
15239;DHT22;7722;53.274;9.500;2023-11-19T15:18:56;10.70;99.90
15239;DHT22;7722;53.274;9.500;2023-11-19T15:21:25;10.70;99.90
15239;DHT22;7722;53.274;9.500;2023-11-19T15:23:54;10.60;99.90
15239;DHT22;7722;53.274;9.500;2023-11-19T15:26:22;10.70;99.90
15239;DHT22;7722;53.274;9.500;2023-11-19T15:28:49;10.60;99.90
15239;DHT22;7722;53.274;9.500;2023-11-19T15:31:16;10.60;99.90
15239;DHT22;7722;53.274;9.500;2023-11-19T15:33:44;10.60;99.90
15239;DHT22;7722;53.274;9.500;2023-11-19T15:36:12;10.60;99.90
15239;DHT22;7722;53.274;9.500;2023-11-19T15:38:39;10.50;99.90
15239;DHT22;7722;53.274;9.500;2023-11-19T15:41:07;10.60;99.90
15239;DHT22;7722;53.274;9.500;2023-11-19T15:43:34;10.50;99.90
15239;DHT22;7722;53.274;9.500;2023-11-19T15:46:01;10.50;99.90
15239;DHT22;7722;53.274;9.500;2023-11-19T15:48:28;10.50;99.90
15239;DHT22;7722;53.274;9.500;2023-11-19T15:50:56;10.50;99.90
15239;DHT22;7722;53.274;9.500;2023-11-19T15:53:23;10.50;99.90
15239;DHT22;7722;53.274;9.500;2023-11-19T15:55:51;10.50;99.90
15239;DHT22;7722;53.274;9.500;2023-11-19T15:58:18;10.50;99.90
15239;DHT22;7722;53.274;9.500;2023-11-19T16:00:45;10.50;99.90